createdAt,value
2019-01-17T00:03:00.274Z,23.93
2019-01-17T00:05:45.613Z,23.87
2019-01-17T00:08:55.113Z,24.67
2019-01-17T00:11:46.732Z,22.10
2019-01-17T00:14:28.323Z,22.20
2019-01-17T00:17:24.778Z,13.47
2019-01-17T00:20:25.178Z,15.57
2019-01-17T00:23:23.471Z,12.80
2019-01-17T00:26:07.991Z,11.30
2019-01-17T00:28:56.780Z,10.73
2019-01-17T00:31:38.185Z,10.37
2019-01-17T00:34:50.351Z,11.50
2019-01-17T00:37:44.740Z,10.73
2019-01-17T00:40:42.357Z,13.30
2019-01-17T00:43:37.096Z,13.67
2019-01-17T00:46:30.976Z,17.67
2019-01-17T00:49:30.951Z,15.83
2019-01-17T00:52:31.342Z,14.90
2019-01-17T00:55:25.514Z,13.43
2019-01-17T00:58:28.095Z,14.27
2019-01-17T01:01:28.391Z,15.83
2019-01-17T01:04:20.061Z,15.77
2019-01-17T01:07:12.663Z,16.27
2019-01-17T01:10:09.217Z,15.33
2019-01-17T01:13:03.821Z,14.97
2019-01-17T01:16:00.947Z,15.00
2019-01-17T01:18:49.934Z,15.40
2019-01-17T01:21:42.365Z,17.20
2019-01-17T01:24:36.599Z,17.03
2019-01-17T01:27:33.910Z,14.67
2019-01-17T01:30:28.169Z,15.50
2019-01-17T01:33:19.838Z,13.43
2019-01-17T01:36:11.107Z,12.20
2019-01-17T01:39:11.254Z,11.40
2019-01-17T01:41:56.189Z,8.00
2019-01-17T01:44:51.823Z,11.40
2019-01-17T01:47:44.106Z,11.50
2019-01-17T01:50:41.605Z,10.07
2019-01-17T01:53:15.011Z,10.57
2019-01-17T01:55:48.934Z,11.07
2019-01-17T01:58:22.294Z,8.17
2019-01-17T02:00:56.205Z,8.93
2019-01-17T02:03:30.253Z,8.50
2019-01-17T02:06:03.952Z,7.70
2019-01-17T02:08:37.522Z,7.57
2019-01-17T02:11:11.176Z,6.13
2019-01-17T02:13:45.625Z,6.23
2019-01-17T02:16:18.592Z,6.83
2019-01-17T02:18:52.143Z,8.03
2019-01-17T02:21:25.606Z,7.47
2019-01-17T02:23:59.202Z,6.43
2019-01-17T02:26:32.703Z,7.33
2019-01-17T02:29:06.420Z,6.83
2019-01-17T02:31:39.995Z,6.63
2019-01-17T02:34:14.080Z,4.50
2019-01-17T02:36:47.853Z,3.77
2019-01-17T02:39:21.869Z,3.20
2019-01-17T02:41:55.464Z,3.40
2019-01-17T02:44:30.096Z,4.30
2019-01-17T02:47:03.295Z,3.33
2019-01-17T02:49:37.379Z,3.47
2019-01-17T02:52:10.921Z,3.67
2019-01-17T02:54:44.491Z,4.50
2019-01-17T02:57:17.985Z,6.90
2019-01-17T02:59:51.978Z,6.70
2019-01-17T03:02:25.394Z,6.10
2019-01-17T03:04:59.349Z,4.80
2019-01-17T03:07:33.072Z,5.40
2019-01-17T03:10:07.813Z,5.00
2019-01-17T03:12:41.319Z,5.50
2019-01-17T03:15:15.339Z,5.50
2019-01-17T03:17:48.759Z,5.90
2019-01-17T03:20:23.165Z,6.00
2019-01-17T03:22:56.775Z,5.13
2019-01-17T03:25:30.861Z,5.73
2019-01-17T03:28:04.281Z,5.77
2019-01-17T03:30:39.322Z,5.97
2019-01-17T03:33:12.879Z,7.60
2019-01-17T03:35:46.841Z,7.60
2019-01-17T03:38:20.481Z,5.87
2019-01-17T03:40:55.661Z,4.80
2019-01-17T03:43:29.004Z,4.10
2019-01-17T03:46:03.476Z,3.33
2019-01-17T03:48:36.916Z,2.77
2019-01-17T03:51:10.415Z,3.07
2019-01-17T03:53:43.562Z,3.27
2019-01-17T03:56:21.606Z,6.27
2019-01-17T03:58:52.469Z,5.23
2019-01-17T04:01:25.457Z,3.97
2019-01-17T04:04:05.115Z,4.67
2019-01-17T04:06:38.681Z,4.63
2019-01-17T04:09:12.354Z,4.80
2019-01-17T04:11:45.963Z,3.90
2019-01-17T04:14:19.577Z,6.07
2019-01-17T04:16:53.156Z,8.10
2019-01-17T04:19:28.932Z,7.07
2019-01-17T04:22:02.436Z,5.87
2019-01-17T04:24:36.098Z,7.63
2019-01-17T04:27:09.590Z,8.07
2019-01-17T04:29:43.084Z,6.37
2019-01-17T04:32:17.443Z,6.60
2019-01-17T04:34:50.953Z,6.80
2019-01-17T04:37:24.697Z,5.97
2019-01-17T04:39:58.456Z,6.33
2019-01-17T04:42:32.899Z,4.67
2019-01-17T04:45:07.923Z,6.57
2019-01-17T04:47:42.428Z,5.80
2019-01-17T04:50:16.677Z,7.87
2019-01-17T04:52:50.473Z,5.73
2019-01-17T04:55:24.028Z,9.63
2019-01-17T04:57:57.768Z,19.27
2019-01-17T05:00:31.370Z,13.47
2019-01-17T05:03:04.902Z,12.40
2019-01-17T05:05:38.440Z,9.67
2019-01-17T05:08:12.080Z,8.17
2019-01-17T05:10:46.639Z,9.60
2019-01-17T05:13:20.539Z,6.47
2019-01-17T05:15:53.955Z,6.03
2019-01-17T05:18:27.409Z,7.77
2019-01-17T05:21:00.856Z,9.33
2019-01-17T05:23:34.669Z,12.07
2019-01-17T05:26:08.743Z,10.27
2019-01-17T05:28:42.777Z,11.53
2019-01-17T05:31:16.275Z,10.87
2019-01-17T05:33:50.198Z,12.50
2019-01-17T05:36:25.789Z,14.83
2019-01-17T05:38:59.357Z,13.17
2019-01-17T05:41:33.110Z,11.50
2019-01-17T05:44:06.899Z,13.43
2019-01-17T05:46:40.629Z,14.00
2019-01-17T05:49:15.079Z,15.27
2019-01-17T05:51:48.562Z,16.93
2019-01-17T05:54:22.267Z,15.93
2019-01-17T05:56:55.770Z,17.60
2019-01-17T05:59:30.641Z,18.30
2019-01-17T06:02:04.311Z,15.73
2019-01-17T06:04:37.529Z,17.50
2019-01-17T06:07:11.185Z,18.07
2019-01-17T06:09:47.660Z,18.33
2019-01-17T06:12:21.296Z,21.50
2019-01-17T06:14:55.101Z,18.73
2019-01-17T06:17:28.742Z,23.13
2019-01-17T06:20:02.609Z,24.63
2019-01-17T06:22:37.980Z,25.83
2019-01-17T06:25:12.168Z,27.37
2019-01-17T06:27:45.772Z,30.10
2019-01-17T06:30:19.667Z,32.03
2019-01-17T06:32:53.413Z,35.63
2019-01-17T06:35:27.535Z,36.30
2019-01-17T06:38:01.419Z,36.33
2019-01-17T06:40:35.723Z,34.20
2019-01-17T06:43:09.557Z,39.67
2019-01-17T06:45:43.300Z,29.30
2019-01-17T06:48:16.805Z,28.57
2019-01-17T06:50:51.816Z,28.20
2019-01-17T06:53:25.455Z,23.13
2019-01-17T06:55:59.463Z,23.97
2019-01-17T06:58:33.130Z,22.97
2019-01-17T07:01:07.168Z,24.57
2019-01-17T07:03:41.269Z,20.63
2019-01-17T07:06:15.198Z,17.13
2019-01-17T07:08:49.786Z,17.73
2019-01-17T07:11:23.922Z,18.70
2019-01-17T07:13:58.655Z,18.87
2019-01-17T07:16:32.596Z,17.37
2019-01-17T07:19:06.597Z,19.17
2019-01-17T07:21:40.515Z,17.33
2019-01-17T07:24:15.045Z,20.60
2019-01-17T07:26:50.069Z,19.83
2019-01-17T07:29:24.734Z,19.07
2019-01-17T07:31:59.477Z,17.20
2019-01-17T07:34:33.189Z,18.70
2019-01-17T07:37:07.077Z,17.43
2019-01-17T07:39:40.906Z,17.47
2019-01-17T07:42:14.901Z,17.00
2019-01-17T07:44:49.772Z,17.63
2019-01-17T07:47:23.813Z,17.10
2019-01-17T07:49:56.942Z,14.67
2019-01-17T07:52:34.613Z,18.83
2019-01-17T07:55:09.259Z,15.50
2019-01-17T07:57:42.941Z,15.10
2019-01-17T08:00:19.774Z,12.90
2019-01-17T08:02:55.557Z,11.93
2019-01-17T08:05:29.300Z,11.20
2019-01-17T08:08:03.255Z,14.63
2019-01-17T08:10:37.025Z,14.63
2019-01-17T08:13:11.416Z,13.50
2019-01-17T08:15:45.431Z,14.03
2019-01-17T08:18:20.173Z,14.70
2019-01-17T08:20:54.137Z,16.00
2019-01-17T08:23:34.550Z,12.90
2019-01-17T08:26:04.035Z,15.30
2019-01-17T08:28:37.901Z,13.97
2019-01-17T08:31:12.310Z,14.10
2019-01-17T08:33:46.858Z,20.17
2019-01-17T08:36:20.749Z,14.77
2019-01-17T08:38:55.427Z,12.90
2019-01-17T08:41:27.837Z,20.40
2019-01-17T08:44:01.949Z,14.07
2019-01-17T08:46:35.748Z,16.97
2019-01-17T08:49:09.331Z,17.03
2019-01-17T08:51:46.719Z,16.57
2019-01-17T08:54:21.348Z,20.57
2019-01-17T08:56:55.902Z,18.93
2019-01-17T08:59:30.221Z,18.13
2019-01-17T09:02:03.663Z,20.70
2019-01-17T09:04:37.539Z,19.10
2019-01-17T09:07:12.605Z,17.37
2019-01-17T09:09:46.577Z,16.47
2019-01-17T09:12:20.173Z,15.90
2019-01-17T09:14:54.232Z,17.00
2019-01-17T09:17:28.100Z,14.23
2019-01-17T09:20:01.382Z,14.23
2019-01-17T09:22:35.349Z,12.20
2019-01-17T09:25:10.840Z,12.87
2019-01-17T09:27:44.605Z,10.70
2019-01-17T09:30:21.266Z,11.30
2019-01-17T09:32:55.323Z,7.47
2019-01-17T09:35:29.352Z,8.50
2019-01-17T09:38:04.851Z,11.40
2019-01-17T09:40:39.266Z,8.27
2019-01-17T09:43:14.833Z,6.13
2019-01-17T09:45:49.245Z,9.47
2019-01-17T09:48:24.307Z,7.07
2019-01-17T09:50:59.169Z,9.60
2019-01-17T09:53:33.183Z,8.33
2019-01-17T09:56:14.804Z,6.20
2019-01-17T09:58:46.390Z,4.57
2019-01-17T10:01:21.147Z,4.57
2019-01-17T10:03:55.597Z,8.83
2019-01-17T10:06:31.545Z,4.70
2019-01-17T10:09:06.729Z,4.00
2019-01-17T10:11:40.566Z,2.53
2019-01-17T10:14:14.355Z,2.30
2019-01-17T10:17:01.776Z,2.30
2019-01-17T10:20:11.057Z,3.07
2019-01-17T10:23:30.055Z,6.67
2019-01-17T10:26:48.971Z,10.90
2019-01-17T10:29:46.273Z,8.47
2019-01-17T10:33:04.329Z,4.80
2019-01-17T10:35:53.893Z,1.57
2019-01-17T10:39:06.450Z,2.10
2019-01-17T10:42:07.465Z,5.27
2019-01-17T10:45:17.804Z,5.30
2019-01-17T10:48:32.446Z,3.97
2019-01-17T10:51:36.535Z,2.70
2019-01-17T10:54:48.704Z,3.83
2019-01-17T10:57:50.504Z,2.90
2019-01-17T11:00:58.170Z,2.33
2019-01-17T11:03:56.832Z,2.20
2019-01-17T11:07:04.452Z,1.83
2019-01-17T11:10:01.442Z,2.10
2019-01-17T11:13:01.955Z,2.30
2019-01-17T11:16:08.146Z,2.00
2019-01-17T11:19:04.598Z,3.13
2019-01-17T11:22:05.413Z,3.30
2019-01-17T11:25:02.359Z,3.03
2019-01-17T11:28:14.172Z,4.67
2019-01-17T11:31:16.217Z,5.63
2019-01-17T11:34:46.735Z,3.60
2019-01-17T11:38:00.955Z,2.60
2019-01-17T11:41:19.570Z,4.03
2019-01-17T11:44:35.170Z,3.57
2019-01-17T11:47:54.189Z,4.30
2019-01-17T11:50:50.357Z,3.80
2019-01-17T11:53:35.387Z,3.80
2019-01-17T11:56:45.363Z,4.00
2019-01-17T11:59:45.409Z,5.13
2019-01-17T12:02:40.251Z,5.90
2019-01-17T12:05:14.309Z,6.23
2019-01-17T12:07:48.777Z,4.53
2019-01-17T12:10:22.339Z,4.57
2019-01-17T12:12:57.404Z,5.23
2019-01-17T12:15:31.441Z,5.83
2019-01-17T12:18:06.178Z,4.90
2019-01-17T12:20:39.014Z,4.80
2019-01-17T12:23:13.534Z,4.53
2019-01-17T12:25:47.255Z,5.60
2019-01-17T12:28:21.459Z,8.80
2019-01-17T12:30:55.405Z,6.47
2019-01-17T12:33:29.503Z,6.40
2019-01-17T12:36:03.742Z,5.03
2019-01-17T12:38:38.176Z,9.33
2019-01-17T12:41:13.563Z,5.97
2019-01-17T12:43:47.753Z,5.70
2019-01-17T12:46:21.103Z,7.33
2019-01-17T12:48:56.357Z,6.23
2019-01-17T12:51:31.632Z,6.83
2019-01-17T12:54:05.680Z,5.97
2019-01-17T12:56:42.137Z,4.80
2019-01-17T12:59:19.232Z,4.30
2019-01-17T13:01:57.432Z,5.00
2019-01-17T13:04:31.972Z,9.10
2019-01-17T13:07:05.477Z,10.30
2019-01-17T13:09:40.477Z,8.50
2019-01-17T13:12:13.911Z,9.80
2019-01-17T13:14:49.690Z,9.43
2019-01-17T13:17:24.998Z,7.73
2019-01-17T13:19:58.362Z,5.93
2019-01-17T13:22:31.945Z,4.97
2019-01-17T13:25:06.639Z,9.30
2019-01-17T13:27:42.360Z,9.77
2019-01-17T13:30:21.301Z,8.73
2019-01-17T13:32:57.241Z,7.77
2019-01-17T13:35:32.191Z,8.40
2019-01-17T13:38:06.505Z,8.27
2019-01-17T13:40:40.275Z,8.20
2019-01-17T13:43:14.077Z,8.07
2019-01-17T13:45:48.909Z,10.07
2019-01-17T13:48:28.697Z,5.63
2019-01-17T13:51:02.930Z,7.63
2019-01-17T13:53:36.036Z,5.50
2019-01-17T13:56:10.087Z,5.70
2019-01-17T13:58:47.158Z,4.73
2019-01-17T14:01:22.033Z,7.77
2019-01-17T14:03:57.530Z,9.73
2019-01-17T14:06:34.900Z,8.97
2019-01-17T14:09:10.943Z,6.67
2019-01-17T14:11:45.682Z,8.57
2019-01-17T14:14:19.369Z,10.30
2019-01-17T14:16:51.684Z,7.00
2019-01-17T14:19:26.946Z,7.70
2019-01-17T14:22:03.375Z,6.70
2019-01-17T14:24:37.707Z,12.47
2019-01-17T14:27:14.118Z,10.93
2019-01-17T14:29:48.149Z,9.70
2019-01-17T14:32:21.926Z,10.27
2019-01-17T14:34:56.715Z,14.10
2019-01-17T14:37:31.098Z,13.00
2019-01-17T14:40:06.866Z,6.13
2019-01-17T14:42:42.011Z,4.67
2019-01-17T14:45:18.882Z,6.40
2019-01-17T14:47:55.125Z,11.00
2019-01-17T14:50:31.769Z,10.97
2019-01-17T14:53:06.433Z,10.70
2019-01-17T14:55:40.357Z,10.73
2019-01-17T14:58:15.369Z,6.90
2019-01-17T15:00:50.158Z,14.93
2019-01-17T15:03:24.490Z,14.00
2019-01-17T15:05:58.507Z,19.80
2019-01-17T15:08:34.346Z,18.73
2019-01-17T15:11:08.195Z,33.10
2019-01-17T15:13:42.034Z,17.47
2019-01-17T15:16:16.571Z,16.83
2019-01-17T15:18:51.025Z,21.50
2019-01-17T15:21:24.687Z,26.27
2019-01-17T15:23:58.980Z,19.37
2019-01-17T15:26:32.383Z,13.33
2019-01-17T15:29:06.143Z,22.00
2019-01-17T15:31:40.772Z,21.23
2019-01-17T15:34:17.794Z,24.50
2019-01-17T15:36:51.696Z,17.03
2019-01-17T15:39:27.406Z,16.20
2019-01-17T15:42:01.025Z,30.40
2019-01-17T15:44:36.606Z,35.77
2019-01-17T15:47:13.271Z,32.53
2019-01-17T15:49:46.051Z,23.90
2019-01-17T15:52:20.397Z,36.03
2019-01-17T15:54:54.711Z,38.03
2019-01-17T15:57:33.884Z,34.87
2019-01-17T16:00:05.583Z,35.80
2019-01-17T16:02:39.543Z,32.67
2019-01-17T16:05:14.230Z,35.63
2019-01-17T16:07:49.686Z,33.90
2019-01-17T16:10:25.117Z,32.27
2019-01-17T16:12:59.703Z,32.73
2019-01-17T16:15:33.051Z,35.83
2019-01-17T16:18:07.025Z,38.07
2019-01-17T16:20:45.773Z,43.40
2019-01-17T16:23:21.357Z,47.57
2019-01-17T16:25:56.029Z,54.30
2019-01-17T16:28:30.705Z,63.63
2019-01-17T16:31:04.789Z,58.80
2019-01-17T16:33:39.595Z,56.37
2019-01-17T16:36:13.394Z,55.50
2019-01-17T16:38:49.306Z,54.40
2019-01-17T16:41:23.928Z,55.27
2019-01-17T16:43:57.100Z,57.63
2019-01-17T16:46:31.902Z,55.33
2019-01-17T16:49:06.648Z,68.13
2019-01-17T16:51:40.771Z,55.10
2019-01-17T16:54:14.451Z,57.33
2019-01-17T16:56:51.175Z,55.03
2019-01-17T16:59:25.276Z,57.33
2019-01-17T17:02:00.737Z,51.70
2019-01-17T17:04:35.520Z,54.93
2019-01-17T17:07:09.593Z,49.60
2019-01-17T17:09:43.688Z,51.60
2019-01-17T17:12:17.763Z,52.00
2019-01-17T17:14:51.538Z,50.37
2019-01-17T17:17:29.337Z,51.17
2019-01-17T17:20:02.987Z,53.00
2019-01-17T17:22:35.666Z,57.43
2019-01-17T17:25:09.943Z,56.90
2019-01-17T17:27:44.411Z,57.90
2019-01-17T17:30:21.905Z,51.80
2019-01-17T17:32:57.580Z,46.17
2019-01-17T17:35:36.791Z,46.67
2019-01-17T17:38:11.550Z,45.43
2019-01-17T17:40:47.851Z,45.60
2019-01-17T17:43:21.872Z,46.20
2019-01-17T17:45:55.551Z,45.30
2019-01-17T17:48:29.578Z,43.70
2019-01-17T17:51:04.410Z,43.53
2019-01-17T17:53:38.267Z,41.83
2019-01-17T17:56:14.220Z,46.10
2019-01-17T17:58:50.364Z,39.67
2019-01-17T18:01:36.638Z,39.57
2019-01-17T18:04:10.552Z,37.60
2019-01-17T18:06:47.238Z,38.73
2019-01-17T18:09:21.126Z,39.13
2019-01-17T18:11:54.880Z,37.77
2019-01-17T18:14:29.049Z,35.73
2019-01-17T18:17:02.606Z,33.93
2019-01-17T18:19:37.038Z,35.03
2019-01-17T18:22:16.090Z,34.90
2019-01-17T18:24:50.808Z,31.30
2019-01-17T18:27:24.470Z,30.87
2019-01-17T18:29:58.327Z,34.60
2019-01-17T18:32:34.355Z,35.17
2019-01-17T18:35:08.592Z,34.37
2019-01-17T18:37:42.388Z,36.30
2019-01-17T18:40:19.271Z,35.10
2019-01-17T18:42:52.897Z,45.30
2019-01-17T18:45:32.738Z,30.63
2019-01-17T18:48:07.021Z,26.20
2019-01-17T18:50:41.224Z,26.40
2019-01-17T18:53:15.023Z,23.07
2019-01-17T18:55:48.944Z,22.30
2019-01-17T18:58:25.722Z,24.43
2019-01-17T19:00:59.660Z,30.20
2019-01-17T19:03:33.446Z,29.47
2019-01-17T19:06:12.596Z,30.53
2019-01-17T19:08:47.063Z,38.87
2019-01-17T19:11:24.346Z,47.23
2019-01-17T19:13:59.111Z,44.20
2019-01-17T19:16:33.544Z,42.77
2019-01-17T19:19:07.346Z,44.23
2019-01-17T19:21:41.641Z,44.87
2019-01-17T19:24:15.317Z,44.23
2019-01-17T19:26:50.145Z,40.03
2019-01-17T19:29:26.789Z,40.70
2019-01-17T19:32:02.311Z,33.27
2019-01-17T19:34:36.199Z,32.67
2019-01-17T19:37:11.801Z,25.47
2019-01-17T19:39:45.899Z,27.00
2019-01-17T19:42:21.415Z,25.03
2019-01-17T19:44:57.255Z,21.63
2019-01-17T19:47:31.381Z,23.23
2019-01-17T19:50:09.253Z,21.23
2019-01-17T19:52:42.964Z,21.63
2019-01-17T19:55:22.072Z,21.17
2019-01-17T19:57:56.908Z,20.30
2019-01-17T20:00:30.142Z,21.80
2019-01-17T20:03:06.837Z,21.57
2019-01-17T20:05:41.691Z,26.17
2019-01-17T20:08:14.023Z,30.40
2019-01-17T20:10:48.370Z,33.33
2019-01-17T20:13:22.439Z,28.63
2019-01-17T20:15:56.612Z,26.10
2019-01-17T20:18:31.246Z,28.17
2019-01-17T20:21:06.051Z,31.07
2019-01-17T20:23:39.947Z,34.67
2019-01-17T20:26:13.583Z,33.37
2019-01-17T20:28:48.994Z,41.10
2019-01-17T20:31:24.408Z,36.60
2019-01-17T20:33:58.231Z,33.33
2019-01-17T20:36:31.896Z,33.43
2019-01-17T20:39:07.245Z,26.77
2019-01-17T20:41:42.282Z,24.73
2019-01-17T20:44:16.744Z,21.83
2019-01-17T20:46:50.744Z,19.27
2019-01-17T20:49:24.888Z,23.00
2019-01-17T20:51:58.668Z,22.37
2019-01-17T20:54:33.567Z,16.43
2019-01-17T20:57:08.770Z,17.07
2019-01-17T20:59:42.283Z,12.90
2019-01-17T21:02:18.938Z,15.67
2019-01-17T21:04:53.717Z,12.43
2019-01-17T21:07:28.313Z,11.37
2019-01-17T21:10:03.772Z,9.63
2019-01-17T21:12:37.506Z,10.63
2019-01-17T21:15:12.657Z,9.53
2019-01-17T21:17:47.122Z,8.80
2019-01-17T21:20:20.978Z,8.90
2019-01-17T21:22:54.681Z,8.57
2019-01-17T21:25:31.597Z,9.50
2019-01-17T21:28:05.546Z,9.03
2019-01-17T21:30:39.247Z,7.87
2019-01-17T21:33:13.374Z,10.00
2019-01-17T21:35:47.489Z,8.83
2019-01-17T21:38:22.915Z,7.30
2019-01-17T21:40:58.484Z,8.87
2019-01-17T21:43:34.693Z,8.57
2019-01-17T21:46:08.398Z,10.20
2019-01-17T21:48:42.154Z,9.03
2019-01-17T21:51:15.822Z,9.03
2019-01-17T21:53:50.936Z,7.67
2019-01-17T21:56:25.209Z,6.47
2019-01-17T21:58:58.891Z,6.30
2019-01-17T22:01:32.906Z,8.37
2019-01-17T22:04:06.779Z,10.17
2019-01-17T22:06:57.540Z,8.40
2019-01-17T22:09:30.788Z,7.97
2019-01-17T22:12:05.166Z,7.83
2019-01-17T22:14:39.134Z,9.53
2019-01-17T22:17:13.107Z,7.03
2019-01-17T22:19:47.986Z,4.97
2019-01-17T22:22:21.742Z,6.17
2019-01-17T22:24:55.522Z,5.73
2019-01-17T22:27:29.156Z,7.40
2019-01-17T22:30:02.704Z,5.70
2019-01-17T22:32:36.350Z,6.23
2019-01-17T22:35:10.097Z,5.63
2019-01-17T22:37:44.116Z,5.73
2019-01-17T22:40:18.246Z,4.70
2019-01-17T22:42:52.111Z,4.60
2019-01-17T22:45:31.234Z,5.03
2019-01-17T22:48:05.263Z,5.60
2019-01-17T22:50:39.168Z,4.63
2019-01-17T22:53:13.145Z,4.33
2019-01-17T22:55:46.877Z,5.77
2019-01-17T22:58:20.618Z,5.53
2019-01-17T23:01:19.967Z,5.23
2019-01-17T23:03:55.207Z,5.87
2019-01-17T23:06:30.157Z,4.10
2019-01-17T23:09:04.935Z,4.77
2019-01-17T23:11:38.757Z,4.50
2019-01-17T23:14:12.453Z,4.00
2019-01-17T23:16:47.163Z,4.93
2019-01-17T23:19:21.190Z,5.63
2019-01-17T23:21:55.948Z,3.87
2019-01-17T23:24:29.674Z,4.83
2019-01-17T23:27:03.844Z,4.97
2019-01-17T23:29:37.919Z,4.93
2019-01-17T23:32:12.066Z,4.17
2019-01-17T23:34:45.988Z,3.63
2019-01-17T23:37:19.705Z,3.70
2019-01-17T23:39:53.404Z,4.10
2019-01-17T23:42:26.976Z,6.33
2019-01-17T23:45:00.911Z,6.03
2019-01-17T23:47:34.640Z,3.70
2019-01-17T23:50:08.875Z,3.20
2019-01-17T23:52:42.475Z,3.40
2019-01-17T23:55:16.656Z,3.77
2019-01-17T23:57:49.994Z,5.03
